sensor_id;sensor_type;location;lat;lon;timestamp;pressure;altitude;pressure_sealevel;temperature;humidity
64080;BME280;51042;49.696;10.808;2023-03-03T00:00:07;98668.59;;;-0.16;79.96
64080;BME280;51042;49.696;10.808;2023-03-03T00:02:33;98664.88;;;-0.30;80.79
64080;BME280;51042;49.696;10.808;2023-03-03T00:04:58;98670.91;;;-0.37;81.19
64080;BME280;51042;49.696;10.808;2023-03-03T00:07:23;98672.31;;;-0.43;81.42
64080;BME280;51042;49.696;10.808;2023-03-03T00:09:48;98678.25;;;-0.53;81.93
64080;BME280;51042;49.696;10.808;2023-03-03T00:12:20;98676.91;;;-0.63;82.79
64080;BME280;51042;49.696;10.808;2023-03-03T00:14:47;98675.97;;;-0.70;83.94
64080;BME280;51042;49.696;10.808;2023-03-03T00:19:43;98678.53;;;-0.77;84.99
64080;BME280;51042;49.696;10.808;2023-03-03T00:22:13;98679.97;;;-0.84;85.11
64080;BME280;51042;49.696;10.808;2023-03-03T00:24:40;98682.22;;;-0.86;85.75
64080;BME280;51042;49.696;10.808;2023-03-03T00:27:15;98678.59;;;-0.93;86.03
64080;BME280;51042;49.696;10.808;2023-03-03T00:29:48;98679.97;;;-0.99;86.32
64080;BME280;51042;49.696;10.808;2023-03-03T00:32:37;98682.63;;;-1.03;86.59
64080;BME280;51042;49.696;10.808;2023-03-03T00:35:22;98682.44;;;-1.10;86.90
64080;BME280;51042;49.696;10.808;2023-03-03T00:37:47;98681.22;;;-1.12;86.98
64080;BME280;51042;49.696;10.808;2023-03-03T00:40:22;98690.34;;;-1.17;87.33
64080;BME280;51042;49.696;10.808;2023-03-03T00:42:49;98674.81;;;-1.24;88.12
64080;BME280;51042;49.696;10.808;2023-03-03T00:45:17;98684.81;;;-1.24;88.30
64080;BME280;51042;49.696;10.808;2023-03-03T00:47:45;98685.19;;;-1.26;88.32
64080;BME280;51042;49.696;10.808;2023-03-03T00:52:37;98695.00;;;-1.33;88.63
64080;BME280;51042;49.696;10.808;2023-03-03T00:55:03;98693.09;;;-1.33;88.55
64080;BME280;51042;49.696;10.808;2023-03-03T00:57:28;98694.88;;;-1.37;88.81
64080;BME280;51042;49.696;10.808;2023-03-03T00:59:54;98689.50;;;-1.37;88.89
64080;BME280;51042;49.696;10.808;2023-03-03T01:02:19;98691.00;;;-1.39;89.08
64080;BME280;51042;49.696;10.808;2023-03-03T01:04:47;98700.66;;;-1.38;88.62
64080;BME280;51042;49.696;10.808;2023-03-03T01:07:13;98707.03;;;-1.43;88.15
64080;BME280;51042;49.696;10.808;2023-03-03T01:09:38;98705.84;;;-1.45;88.79
64080;BME280;51042;49.696;10.808;2023-03-03T01:12:04;98702.31;;;-1.49;89.31
64080;BME280;51042;49.696;10.808;2023-03-03T01:14:29;98698.31;;;-1.55;89.21
64080;BME280;51042;49.696;10.808;2023-03-03T01:16:54;98692.47;;;-1.57;89.26
64080;BME280;51042;49.696;10.808;2023-03-03T01:19:19;98689.34;;;-1.59;89.37
64080;BME280;51042;49.696;10.808;2023-03-03T01:21:45;98700.47;;;-1.61;90.44
64080;BME280;51042;49.696;10.808;2023-03-03T01:24:10;98691.53;;;-1.65;90.21
64080;BME280;51042;49.696;10.808;2023-03-03T01:26:35;98693.34;;;-1.69;90.18
64080;BME280;51042;49.696;10.808;2023-03-03T01:29:00;98683.25;;;-1.72;90.51
64080;BME280;51042;49.696;10.808;2023-03-03T01:31:25;98685.97;;;-1.72;90.85
64080;BME280;51042;49.696;10.808;2023-03-03T01:33:51;98679.38;;;-1.75;91.10
64080;BME280;51042;49.696;10.808;2023-03-03T01:36:21;98675.13;;;-1.76;90.94
64080;BME280;51042;49.696;10.808;2023-03-03T01:38:46;98676.25;;;-1.77;90.98
64080;BME280;51042;49.696;10.808;2023-03-03T01:41:11;98676.25;;;-1.77;91.21
64080;BME280;51042;49.696;10.808;2023-03-03T01:43:41;98673.09;;;-1.79;91.57
64080;BME280;51042;49.696;10.808;2023-03-03T01:48:35;98671.84;;;-1.85;91.44
64080;BME280;51042;49.696;10.808;2023-03-03T01:51:03;98675.97;;;-1.87;91.23
64080;BME280;51042;49.696;10.808;2023-03-03T01:53:38;98670.94;;;-1.89;91.61
64080;BME280;51042;49.696;10.808;2023-03-03T01:56:05;98682.03;;;-1.90;91.57
64080;BME280;51042;49.696;10.808;2023-03-03T01:58:34;98674.22;;;-1.95;91.65
64080;BME280;51042;49.696;10.808;2023-03-03T02:01:03;98672.31;;;-1.95;92.36
64080;BME280;51042;49.696;10.808;2023-03-03T02:03:29;98671.13;;;-1.97;92.26
64080;BME280;51042;49.696;10.808;2023-03-03T02:05:56;98669.97;;;-1.96;92.64
64080;BME280;51042;49.696;10.808;2023-03-03T02:08:22;98672.06;;;-2.06;92.13
64080;BME280;51042;49.696;10.808;2023-03-03T02:10:50;98663.22;;;-2.06;93.00
64080;BME280;51042;49.696;10.808;2023-03-03T02:13:15;98664.31;;;-2.07;92.92
64080;BME280;51042;49.696;10.808;2023-03-03T02:15:40;98662.75;;;-2.08;93.06
64080;BME280;51042;49.696;10.808;2023-03-03T02:18:07;98677.34;;;-2.09;93.11
64080;BME280;51042;49.696;10.808;2023-03-03T02:25:41;98681.06;;;-2.14;93.66
64080;BME280;51042;49.696;10.808;2023-03-03T02:28:08;98685.22;;;-2.16;94.10
64080;BME280;51042;49.696;10.808;2023-03-03T02:30:36;98679.72;;;-2.20;94.27
64080;BME280;51042;49.696;10.808;2023-03-03T02:33:02;98684.00;;;-2.19;94.45
64080;BME280;51042;49.696;10.808;2023-03-03T02:35:28;98681.31;;;-2.19;94.80
64080;BME280;51042;49.696;10.808;2023-03-03T02:37:55;98679.84;;;-2.16;94.86
64080;BME280;51042;49.696;10.808;2023-03-03T02:40:23;98678.63;;;-2.19;94.72
64080;BME280;51042;49.696;10.808;2023-03-03T02:42:50;98677.41;;;-2.21;94.73
64080;BME280;51042;49.696;10.808;2023-03-03T02:45:16;98686.16;;;-2.24;94.85
64080;BME280;51042;49.696;10.808;2023-03-03T02:47:47;98687.63;;;-2.27;94.67
64080;BME280;51042;49.696;10.808;2023-03-03T02:50:13;98696.03;;;-2.28;95.27
64080;BME280;51042;49.696;10.808;2023-03-03T02:52:39;98688.75;;;-2.28;95.74
64080;BME280;51042;49.696;10.808;2023-03-03T02:55:04;98688.38;;;-2.26;95.81
64080;BME280;51042;49.696;10.808;2023-03-03T02:57:30;98684.16;;;-2.27;95.95
64080;BME280;51042;49.696;10.808;2023-03-03T02:59:55;98686.84;;;-2.27;96.35
64080;BME280;51042;49.696;10.808;2023-03-03T03:02:20;98684.69;;;-2.22;96.86
64080;BME280;51042;49.696;10.808;2023-03-03T03:04:45;98677.50;;;-2.18;96.68
64080;BME280;51042;49.696;10.808;2023-03-03T03:07:11;98666.94;;;-1.95;97.95
64080;BME280;51042;49.696;10.808;2023-03-03T03:09:36;98678.59;;;-1.91;96.82
64080;BME280;51042;49.696;10.808;2023-03-03T03:12:01;98685.88;;;-1.91;96.34
64080;BME280;51042;49.696;10.808;2023-03-03T03:14:27;98686.47;;;-1.82;97.39
64080;BME280;51042;49.696;10.808;2023-03-03T03:16:52;98687.72;;;-1.80;97.13
64080;BME280;51042;49.696;10.808;2023-03-03T03:19:17;98682.47;;;-1.88;96.94
64080;BME280;51042;49.696;10.808;2023-03-03T03:21:42;98684.91;;;-1.99;96.88
64080;BME280;51042;49.696;10.808;2023-03-03T03:24:07;98692.84;;;-2.02;98.36
64080;BME280;51042;49.696;10.808;2023-03-03T03:26:33;98696.59;;;-2.07;98.54
64080;BME280;51042;49.696;10.808;2023-03-03T03:28:58;98691.91;;;-2.10;99.08
64080;BME280;51042;49.696;10.808;2023-03-03T03:31:23;98696.16;;;-2.09;99.57
64080;BME280;51042;49.696;10.808;2023-03-03T03:33:48;98691.84;;;-1.98;100.00
64080;BME280;51042;49.696;10.808;2023-03-03T03:36:13;98688.03;;;-1.81;100.00
64080;BME280;51042;49.696;10.808;2023-03-03T03:38:39;98697.59;;;-1.68;100.00
64080;BME280;51042;49.696;10.808;2023-03-03T03:41:04;98703.50;;;-1.62;100.00
64080;BME280;51042;49.696;10.808;2023-03-03T03:43:30;98696.56;;;-1.63;99.86
64080;BME280;51042;49.696;10.808;2023-03-03T03:45:55;98688.03;;;-1.66;99.72
64080;BME280;51042;49.696;10.808;2023-03-03T03:48:21;98690.66;;;-1.69;99.66
64080;BME280;51042;49.696;10.808;2023-03-03T03:50:46;98686.31;;;-1.74;100.00
64080;BME280;51042;49.696;10.808;2023-03-03T03:53:12;98684.13;;;-1.84;100.00
64080;BME280;51042;49.696;10.808;2023-03-03T03:55:37;98677.38;;;-1.93;100.00
64080;BME280;51042;49.696;10.808;2023-03-03T03:58:03;98677.44;;;-2.06;100.00
64080;BME280;51042;49.696;10.808;2023-03-03T04:00:28;98682.19;;;-2.15;100.00
64080;BME280;51042;49.696;10.808;2023-03-03T04:02:53;98685.09;;;-2.20;100.00
64080;BME280;51042;49.696;10.808;2023-03-03T04:05:18;98691.44;;;-2.28;100.00
64080;BME280;51042;49.696;10.808;2023-03-03T04:07:43;98690.91;;;-2.33;100.00
64080;BME280;51042;49.696;10.808;2023-03-03T04:10:09;98698.97;;;-2.33;100.00
64080;BME280;51042;49.696;10.808;2023-03-03T04:12:34;98707.56;;;-2.28;100.00
64080;BME280;51042;49.696;10.808;2023-03-03T04:15:06;98708.69;;;-2.29;100.00
64080;BME280;51042;49.696;10.808;2023-03-03T04:17:32;98709.34;;;-2.32;100.00
64080;BME280;51042;49.696;10.808;2023-03-03T04:19:57;98705.34;;;-2.38;100.00
64080;BME280;51042;49.696;10.808;2023-03-03T04:22:22;98701.34;;;-2.44;100.00
64080;BME280;51042;49.696;10.808;2023-03-03T04:24:47;98709.09;;;-2.55;100.00
64080;BME280;51042;49.696;10.808;2023-03-03T04:27:12;98708.56;;;-2.60;100.00
64080;BME280;51042;49.696;10.808;2023-03-03T04:29:39;98703.75;;;-2.67;100.00
64080;BME280;51042;49.696;10.808;2023-03-03T04:32:05;98704.13;;;-2.68;100.00
64080;BME280;51042;49.696;10.808;2023-03-03T04:34:30;98698.63;;;-2.72;100.00
64080;BME280;51042;49.696;10.808;2023-03-03T04:36:55;98708.91;;;-2.74;100.00
64080;BME280;51042;49.696;10.808;2023-03-03T04:39:20;98706.13;;;-2.77;100.00
64080;BME280;51042;49.696;10.808;2023-03-03T04:41:45;98714.97;;;-2.77;100.00
64080;BME280;51042;49.696;10.808;2023-03-03T04:44:10;98716.78;;;-2.81;100.00
64080;BME280;51042;49.696;10.808;2023-03-03T04:46:36;98710.50;;;-2.85;100.00
64080;BME280;51042;49.696;10.808;2023-03-03T04:49:01;98707.63;;;-2.92;100.00
64080;BME280;51042;49.696;10.808;2023-03-03T04:51:28;98714.47;;;-2.95;100.00
64080;BME280;51042;49.696;10.808;2023-03-03T04:53:53;98717.47;;;-2.96;100.00
64080;BME280;51042;49.696;10.808;2023-03-03T04:56:18;98712.78;;;-2.99;100.00
64080;BME280;51042;49.696;10.808;2023-03-03T04:58:43;98718.41;;;-3.04;100.00
64080;BME280;51042;49.696;10.808;2023-03-03T05:01:11;98727.56;;;-3.05;100.00
64080;BME280;51042;49.696;10.808;2023-03-03T05:03:36;98725.53;;;-3.08;100.00
64080;BME280;51042;49.696;10.808;2023-03-03T05:06:01;98723.63;;;-3.08;100.00
64080;BME280;51042;49.696;10.808;2023-03-03T05:08:27;98722.97;;;-3.05;100.00
64080;BME280;51042;49.696;10.808;2023-03-03T05:10:52;98731.03;;;-3.05;100.00
64080;BME280;51042;49.696;10.808;2023-03-03T05:13:18;98727.09;;;-3.07;100.00
64080;BME280;51042;49.696;10.808;2023-03-03T05:15:47;98726.22;;;-3.11;100.00
64080;BME280;51042;49.696;10.808;2023-03-03T05:18:13;98721.97;;;-3.12;100.00
64080;BME280;51042;49.696;10.808;2023-03-03T05:20:39;98729.56;;;-3.14;100.00
64080;BME280;51042;49.696;10.808;2023-03-03T05:23:04;98724.56;;;-3.16;100.00
64080;BME280;51042;49.696;10.808;2023-03-03T05:25:29;98733.59;;;-3.20;100.00
64080;BME280;51042;49.696;10.808;2023-03-03T05:27:55;98736.97;;;-3.23;100.00
64080;BME280;51042;49.696;10.808;2023-03-03T05:30:20;98733.50;;;-3.24;100.00
64080;BME280;51042;49.696;10.808;2023-03-03T05:32:45;98734.59;;;-3.25;100.00
64080;BME280;51042;49.696;10.808;2023-03-03T05:35:10;98726.09;;;-3.27;100.00
64080;BME280;51042;49.696;10.808;2023-03-03T05:37:36;98741.63;;;-3.33;100.00
64080;BME280;51042;49.696;10.808;2023-03-03T05:40:01;98736.16;;;-3.36;100.00
64080;BME280;51042;49.696;10.808;2023-03-03T05:42:26;98744.53;;;-3.38;100.00
64080;BME280;51042;49.696;10.808;2023-03-03T05:44:51;98744.13;;;-3.40;100.00
64080;BME280;51042;49.696;10.808;2023-03-03T05:47:16;98744.88;;;-3.39;100.00
64080;BME280;51042;49.696;10.808;2023-03-03T05:49:41;98751.03;;;-3.39;100.00
64080;BME280;51042;49.696;10.808;2023-03-03T05:52:07;98739.88;;;-3.41;100.00
64080;BME280;51042;49.696;10.808;2023-03-03T05:54:33;98731.47;;;-3.39;100.00
64080;BME280;51042;49.696;10.808;2023-03-03T05:56:58;98737.19;;;-3.41;100.00
64080;BME280;51042;49.696;10.808;2023-03-03T05:59:23;98744.88;;;-3.39;100.00
64080;BME280;51042;49.696;10.808;2023-03-03T06:01:48;98747.69;;;-3.36;100.00
64080;BME280;51042;49.696;10.808;2023-03-03T06:04:14;98747.69;;;-3.36;100.00
64080;BME280;51042;49.696;10.808;2023-03-03T06:06:39;98749.34;;;-3.31;100.00
64080;BME280;51042;49.696;10.808;2023-03-03T06:09:04;98756.06;;;-3.25;100.00
64080;BME280;51042;49.696;10.808;2023-03-03T06:11:30;98756.84;;;-3.24;100.00
64080;BME280;51042;49.696;10.808;2023-03-03T06:13:55;98762.31;;;-3.21;100.00
64080;BME280;51042;49.696;10.808;2023-03-03T06:16:20;98759.44;;;-3.16;100.00
64080;BME280;51042;49.696;10.808;2023-03-03T06:18:45;98768.06;;;-3.10;100.00
64080;BME280;51042;49.696;10.808;2023-03-03T06:21:11;98766.03;;;-3.01;100.00
64080;BME280;51042;49.696;10.808;2023-03-03T06:23:36;98764.22;;;-2.97;100.00
64080;BME280;51042;49.696;10.808;2023-03-03T06:26:01;98772.97;;;-2.88;100.00
64080;BME280;51042;49.696;10.808;2023-03-03T06:28:26;98778.41;;;-2.72;100.00
64080;BME280;51042;49.696;10.808;2023-03-03T06:30:52;98783.53;;;-2.55;100.00
64080;BME280;51042;49.696;10.808;2023-03-03T06:33:18;98780.50;;;-2.41;100.00
64080;BME280;51042;49.696;10.808;2023-03-03T06:35:43;98785.50;;;-2.28;100.00
64080;BME280;51042;49.696;10.808;2023-03-03T06:38:09;98788.47;;;-2.17;100.00
64080;BME280;51042;49.696;10.808;2023-03-03T06:40:34;98784.44;;;-2.11;99.25
64080;BME280;51042;49.696;10.808;2023-03-03T06:42:59;98784.72;;;-2.00;98.16
64080;BME280;51042;49.696;10.808;2023-03-03T06:45:26;98791.28;;;-1.86;97.18
64080;BME280;51042;49.696;10.808;2023-03-03T06:47:51;98797.97;;;-1.80;96.71
64080;BME280;51042;49.696;10.808;2023-03-03T06:50:17;98803.63;;;-1.69;95.71
64080;BME280;51042;49.696;10.808;2023-03-03T06:52:44;98815.53;;;-1.54;95.54
64080;BME280;51042;49.696;10.808;2023-03-03T06:55:10;98811.31;;;-1.40;94.56
64080;BME280;51042;49.696;10.808;2023-03-03T06:57:36;98813.94;;;-1.28;93.48
64080;BME280;51042;49.696;10.808;2023-03-03T07:00:11;98811.25;;;-1.12;93.26
64080;BME280;51042;49.696;10.808;2023-03-03T07:02:38;98815.16;;;-0.94;92.91
64080;BME280;51042;49.696;10.808;2023-03-03T07:05:05;98817.41;;;-0.80;92.15
64080;BME280;51042;49.696;10.808;2023-03-03T07:07:30;98818.78;;;-0.70;92.07
64080;BME280;51042;49.696;10.808;2023-03-03T07:09:55;98825.06;;;-0.66;91.49
64080;BME280;51042;49.696;10.808;2023-03-03T07:12:22;98824.06;;;-0.58;91.68
64080;BME280;51042;49.696;10.808;2023-03-03T07:14:48;98825.75;;;-0.34;91.05
64080;BME280;51042;49.696;10.808;2023-03-03T07:17:19;98826.28;;;-0.10;90.73
64080;BME280;51042;49.696;10.808;2023-03-03T07:19:46;98825.25;;;0.14;89.76
64080;BME280;51042;49.696;10.808;2023-03-03T07:24:36;98853.06;;;0.37;88.44
64080;BME280;51042;49.696;10.808;2023-03-03T07:29:30;98849.28;;;0.42;88.82
64080;BME280;51042;49.696;10.808;2023-03-03T07:31:56;98844.03;;;0.49;90.43
64080;BME280;51042;49.696;10.808;2023-03-03T07:34:22;98853.34;;;0.52;90.20
64080;BME280;51042;49.696;10.808;2023-03-03T07:36:49;98851.81;;;0.73;90.40
64080;BME280;51042;49.696;10.808;2023-03-03T07:39:47;98847.16;;;0.70;89.85
64080;BME280;51042;49.696;10.808;2023-03-03T07:44:54;98862.59;;;1.15;91.00
64080;BME280;51042;49.696;10.808;2023-03-03T07:47:30;98864.31;;;1.27;89.83
64080;BME280;51042;49.696;10.808;2023-03-03T07:49:59;98863.97;;;1.29;90.39
64080;BME280;51042;49.696;10.808;2023-03-03T07:54:57;98880.59;;;1.53;89.97
64080;BME280;51042;49.696;10.808;2023-03-03T07:57:26;98882.25;;;1.61;90.15
64080;BME280;51042;49.696;10.808;2023-03-03T07:59:54;98882.25;;;1.61;89.55
64080;BME280;51042;49.696;10.808;2023-03-03T08:02:40;98879.81;;;1.79;88.94
64080;BME280;51042;49.696;10.808;2023-03-03T08:07:45;98877.97;;;1.87;88.30
64080;BME280;51042;49.696;10.808;2023-03-03T08:10:28;98870.28;;;1.89;88.49
64080;BME280;51042;49.696;10.808;2023-03-03T08:12:56;98884.75;;;2.00;88.63
64080;BME280;51042;49.696;10.808;2023-03-03T08:15:23;98876.34;;;2.09;87.97
64080;BME280;51042;49.696;10.808;2023-03-03T08:17:50;98871.44;;;2.18;87.22
64080;BME280;51042;49.696;10.808;2023-03-03T08:22:53;98874.41;;;2.39;86.59
64080;BME280;51042;49.696;10.808;2023-03-03T08:25:19;98877.28;;;2.53;85.84
64080;BME280;51042;49.696;10.808;2023-03-03T08:27:44;98882.84;;;2.64;84.51
64080;BME280;51042;49.696;10.808;2023-03-03T08:30:09;98882.06;;;2.63;84.03
64080;BME280;51042;49.696;10.808;2023-03-03T08:32:34;98876.00;;;2.77;83.62
64080;BME280;51042;49.696;10.808;2023-03-03T08:35:00;98870.66;;;2.84;82.70
64080;BME280;51042;49.696;10.808;2023-03-03T08:37:25;98861.75;;;2.80;82.89
64080;BME280;51042;49.696;10.808;2023-03-03T08:39:50;98865.72;;;2.93;81.74
64080;BME280;51042;49.696;10.808;2023-03-03T08:42:15;98868.94;;;3.06;81.56
64080;BME280;51042;49.696;10.808;2023-03-03T08:44:41;98879.41;;;3.04;80.82
64080;BME280;51042;49.696;10.808;2023-03-03T08:47:06;98873.66;;;3.16;81.19
64080;BME280;51042;49.696;10.808;2023-03-03T08:49:31;98881.84;;;3.19;80.19
64080;BME280;51042;49.696;10.808;2023-03-03T08:51:56;98877.28;;;3.27;79.62
64080;BME280;51042;49.696;10.808;2023-03-03T08:54:22;98882.00;;;3.37;78.37
64080;BME280;51042;49.696;10.808;2023-03-03T08:56:47;98865.81;;;3.48;77.73
64080;BME280;51042;49.696;10.808;2023-03-03T08:59:12;98872.38;;;3.43;77.08
64080;BME280;51042;49.696;10.808;2023-03-03T09:01:37;98876.34;;;3.56;77.94
64080;BME280;51042;49.696;10.808;2023-03-03T09:04:02;98875.41;;;3.86;76.09
64080;BME280;51042;49.696;10.808;2023-03-03T09:06:28;98867.66;;;3.91;75.42
64080;BME280;51042;49.696;10.808;2023-03-03T09:08:53;98870.06;;;4.03;75.73
64080;BME280;51042;49.696;10.808;2023-03-03T09:11:21;98869.66;;;4.01;75.06
64080;BME280;51042;49.696;10.808;2023-03-03T09:13:48;98869.75;;;4.16;74.17
64080;BME280;51042;49.696;10.808;2023-03-03T09:16:17;98879.84;;;4.19;74.24
64080;BME280;51042;49.696;10.808;2023-03-03T09:18:42;98875.31;;;4.44;73.84
64080;BME280;51042;49.696;10.808;2023-03-03T09:24:04;98874.69;;;4.97;72.18
64080;BME280;51042;49.696;10.808;2023-03-03T09:26:42;98877.03;;;5.19;70.65
64080;BME280;51042;49.696;10.808;2023-03-03T09:31:41;98877.06;;;5.44;70.56
64080;BME280;51042;49.696;10.808;2023-03-03T09:36:52;98880.19;;;5.64;68.86
64080;BME280;51042;49.696;10.808;2023-03-03T09:39:21;98879.78;;;5.58;69.29
64080;BME280;51042;49.696;10.808;2023-03-03T09:44:53;98880.94;;;5.64;70.06
64080;BME280;51042;49.696;10.808;2023-03-03T09:53:06;98889.88;;;5.97;68.72
64080;BME280;51042;49.696;10.808;2023-03-03T10:03:39;98882.91;;;5.89;68.62
64080;BME280;51042;49.696;10.808;2023-03-03T10:11:23;98897.91;;;6.50;66.03
64080;BME280;51042;49.696;10.808;2023-03-03T10:14:09;98892.53;;;6.36;66.03
64080;BME280;51042;49.696;10.808;2023-03-03T10:19:26;98895.06;;;6.78;65.05
64080;BME280;51042;49.696;10.808;2023-03-03T10:22:05;98892.78;;;6.73;63.81
64080;BME280;51042;49.696;10.808;2023-03-03T10:24:37;98897.09;;;6.60;63.27
64080;BME280;51042;49.696;10.808;2023-03-03T10:30:15;98901.59;;;6.95;63.14
64080;BME280;51042;49.696;10.808;2023-03-03T10:37:27;98914.03;;;7.03;62.78
64080;BME280;51042;49.696;10.808;2023-03-03T10:45:30;98911.88;;;7.35;60.41
64080;BME280;51042;49.696;10.808;2023-03-03T10:50:49;98909.84;;;7.47;59.89
64080;BME280;51042;49.696;10.808;2023-03-03T11:09:04;98893.47;;;8.29;59.01
64080;BME280;51042;49.696;10.808;2023-03-03T11:11:44;98901.00;;;8.21;58.66
64080;BME280;51042;49.696;10.808;2023-03-03T11:14:12;98896.63;;;8.31;58.30
64080;BME280;51042;49.696;10.808;2023-03-03T11:16:44;98884.53;;;8.28;57.48
64080;BME280;51042;49.696;10.808;2023-03-03T11:21:54;98885.72;;;8.61;56.72
64080;BME280;51042;49.696;10.808;2023-03-03T11:31:44;98874.22;;;9.04;56.74
64080;BME280;51042;49.696;10.808;2023-03-03T11:34:16;98870.59;;;9.10;56.15
64080;BME280;51042;49.696;10.808;2023-03-03T11:36:48;98865.94;;;9.07;56.04
64080;BME280;51042;49.696;10.808;2023-03-03T11:39:15;98870.41;;;8.94;55.13
64080;BME280;51042;49.696;10.808;2023-03-03T11:41:53;98867.44;;;8.85;55.62
64080;BME280;51042;49.696;10.808;2023-03-03T11:49:27;98860.94;;;9.02;55.07
64080;BME280;51042;49.696;10.808;2023-03-03T11:57:22;98856.00;;;9.43;55.43
64080;BME280;51042;49.696;10.808;2023-03-03T12:02:26;98846.00;;;9.57;53.40
64080;BME280;51042;49.696;10.808;2023-03-03T12:07:46;98837.06;;;9.53;54.14
64080;BME280;51042;49.696;10.808;2023-03-03T12:10:27;98829.78;;;9.66;53.98
64080;BME280;51042;49.696;10.808;2023-03-03T12:13:04;98835.13;;;9.96;54.52
64080;BME280;51042;49.696;10.808;2023-03-03T12:15:32;98824.78;;;10.04;53.99
64080;BME280;51042;49.696;10.808;2023-03-03T12:20:48;98815.75;;;10.27;53.25
64080;BME280;51042;49.696;10.808;2023-03-03T12:23:29;98818.91;;;10.64;51.94
64080;BME280;51042;49.696;10.808;2023-03-03T12:28:35;98812.00;;;10.92;52.09
64080;BME280;51042;49.696;10.808;2023-03-03T12:31:17;98808.94;;;10.54;52.86
64080;BME280;51042;49.696;10.808;2023-03-03T12:42:54;98797.88;;;10.38;50.90
64080;BME280;51042;49.696;10.808;2023-03-03T12:47:53;98796.81;;;10.52;52.17
64080;BME280;51042;49.696;10.808;2023-03-03T12:55:17;98801.53;;;10.87;50.77
64080;BME280;51042;49.696;10.808;2023-03-03T13:00:23;98799.25;;;10.66;51.33
64080;BME280;51042;49.696;10.808;2023-03-03T13:08:02;98791.94;;;10.95;50.40
64080;BME280;51042;49.696;10.808;2023-03-03T13:10:37;98795.00;;;10.97;49.00
64080;BME280;51042;49.696;10.808;2023-03-03T13:15:55;98793.69;;;10.86;49.17
64080;BME280;51042;49.696;10.808;2023-03-03T13:23:40;98791.13;;;10.79;48.88
64080;BME280;51042;49.696;10.808;2023-03-03T13:31:18;98780.78;;;11.19;47.64
64080;BME280;51042;49.696;10.808;2023-03-03T13:33:46;98773.13;;;11.26;48.74
64080;BME280;51042;49.696;10.808;2023-03-03T13:36:15;98778.19;;;11.28;47.67
64080;BME280;51042;49.696;10.808;2023-03-03T13:38:42;98769.69;;;11.22;48.98
64080;BME280;51042;49.696;10.808;2023-03-03T13:46:07;98776.91;;;11.16;46.70
64080;BME280;51042;49.696;10.808;2023-03-03T13:48:41;98768.41;;;10.94;47.82
64080;BME280;51042;49.696;10.808;2023-03-03T13:51:19;98777.44;;;10.95;47.14
64080;BME280;51042;49.696;10.808;2023-03-03T13:54:00;98768.84;;;10.93;47.05
64080;BME280;51042;49.696;10.808;2023-03-03T14:02:05;98758.00;;;11.34;47.36
64080;BME280;51042;49.696;10.808;2023-03-03T14:06:58;98757.84;;;11.70;47.62
64080;BME280;51042;49.696;10.808;2023-03-03T14:09:42;98762.28;;;11.52;46.38
64080;BME280;51042;49.696;10.808;2023-03-03T14:12:12;98755.97;;;11.22;48.03
64080;BME280;51042;49.696;10.808;2023-03-03T14:17:14;98751.69;;;11.05;47.87
64080;BME280;51042;49.696;10.808;2023-03-03T14:19:43;98756.72;;;10.90;48.39
64080;BME280;51042;49.696;10.808;2023-03-03T14:22:23;98759.13;;;11.04;47.60
64080;BME280;51042;49.696;10.808;2023-03-03T14:24:54;98752.34;;;10.60;48.96
64080;BME280;51042;49.696;10.808;2023-03-03T14:27:24;98754.22;;;10.28;47.22
64080;BME280;51042;49.696;10.808;2023-03-03T14:29:50;98754.19;;;10.47;47.62
64080;BME280;51042;49.696;10.808;2023-03-03T14:32:25;98750.28;;;10.64;47.60
64080;BME280;51042;49.696;10.808;2023-03-03T14:34:57;98749.31;;;10.55;47.25
64080;BME280;51042;49.696;10.808;2023-03-03T14:37:59;98754.09;;;10.51;46.49
64080;BME280;51042;49.696;10.808;2023-03-03T14:40:21;98743.66;;;10.26;46.37
64080;BME280;51042;49.696;10.808;2023-03-03T14:47:56;98746.81;;;10.05;46.76
64080;BME280;51042;49.696;10.808;2023-03-03T14:55:41;98745.56;;;10.09;46.06
64080;BME280;51042;49.696;10.808;2023-03-03T14:58:23;98740.28;;;9.99;46.19
64080;BME280;51042;49.696;10.808;2023-03-03T15:00:49;98737.41;;;9.86;47.35
64080;BME280;51042;49.696;10.808;2023-03-03T15:03:21;98737.00;;;9.88;46.31
64080;BME280;51042;49.696;10.808;2023-03-03T15:05:48;98740.78;;;9.74;44.26
64080;BME280;51042;49.696;10.808;2023-03-03T15:08:14;98734.56;;;9.50;45.47
64080;BME280;51042;49.696;10.808;2023-03-03T15:10:40;98733.66;;;9.57;43.10
64080;BME280;51042;49.696;10.808;2023-03-03T15:18:23;98724.16;;;9.41;41.87
64080;BME280;51042;49.696;10.808;2023-03-03T15:20:55;98729.88;;;9.51;44.19
64080;BME280;51042;49.696;10.808;2023-03-03T15:26:15;98727.63;;;9.46;43.25
64080;BME280;51042;49.696;10.808;2023-03-03T15:31:28;98733.59;;;9.17;43.59
64080;BME280;51042;49.696;10.808;2023-03-03T15:36:44;98723.06;;;9.16;46.65
64080;BME280;51042;49.696;10.808;2023-03-03T15:39:22;98727.75;;;9.15;47.10
64080;BME280;51042;49.696;10.808;2023-03-03T15:41:59;98732.69;;;9.24;47.72
64080;BME280;51042;49.696;10.808;2023-03-03T15:44:43;98728.88;;;9.18;49.15
64080;BME280;51042;49.696;10.808;2023-03-03T15:50:06;98733.53;;;9.21;47.10
64080;BME280;51042;49.696;10.808;2023-03-03T15:57:57;98727.78;;;8.88;47.79
64080;BME280;51042;49.696;10.808;2023-03-03T16:00:30;98727.03;;;8.88;48.02
64080;BME280;51042;49.696;10.808;2023-03-03T16:03:10;98733.34;;;8.85;47.76
64080;BME280;51042;49.696;10.808;2023-03-03T16:05:51;98724.81;;;8.79;47.00
64080;BME280;51042;49.696;10.808;2023-03-03T16:08:22;98742.53;;;8.71;48.04
64080;BME280;51042;49.696;10.808;2023-03-03T16:11:08;98733.47;;;8.51;47.58
64080;BME280;51042;49.696;10.808;2023-03-03T16:13:39;98731.31;;;8.35;47.74
64080;BME280;51042;49.696;10.808;2023-03-03T16:21:10;98739.41;;;8.12;49.61
64080;BME280;51042;49.696;10.808;2023-03-03T16:28:49;98749.34;;;7.65;51.18
64080;BME280;51042;49.696;10.808;2023-03-03T16:34:14;98764.00;;;7.44;52.12
64080;BME280;51042;49.696;10.808;2023-03-03T16:42:01;98764.72;;;7.07;52.83